• Join FlightAware (Why Join?)
  • Login
  • US Flag 
11:55PM EDT


 

Airport Tracker/Info


-or-


 

Live Flight TrackerFlight Track Log ✈ SKW6330 ✈ 08-May-2013 ✈ KLAX - KFAT

Flight Track Log - Related Links

Times and Time Zones

All times are in EDT time to prevent confusion due to time zone crossing. See the SKW6330 flight status page for this flight to view local times or setup timezone preferences in your user account.

Time Position Orientation Groundspeed Altitude Reporting Facility
EDT Latitude Longitude Course Direction KTS MPH feet Rate Location/Type
07:42PM 33.9522 -118.4742 335° Northwest 139 160 2,600  Level Los Angeles Center
07:43PM 33.9594 -118.5319 279° West 172 198 4,100 1,500 Climbing Los Angeles Center
07:44PM 33.9656 -118.5975 276° West 192 221 5,700 1,380 Climbing Los Angeles Center
07:45PM 34.2187 -118.5520 320° Northwest  Level FlightAware Approximate
07:45PM 34.0075 -118.6367 322° Northwest 199 229 7,000  Level Los Angeles Center
07:46PM 34.2924 -118.5879 338° Northwest  Level FlightAware Approximate
07:46PM 34.0694 -118.6561 345° North 227 261 6,900  Level Los Angeles Center
07:47PM 34.3526 -118.6200 335° Northwest  Level FlightAware Approximate
07:47PM 34.1256 -118.6728 346° North 226 260 7,500  Level Los Angeles Center
07:48PM 34.1789 -118.6867 348° North 205 236 9,400 1,740 Climbing Los Angeles Center
07:49PM 34.2442 -118.7000 350° North 200 230 11,200 1,200 Climbing Los Angeles Center
07:50PM 34.3039 -118.7083 353° North 215 247 12,000 300 Climbing Los Angeles Center
07:51PM 34.3714 -118.7142 356° North 241 277 11,900  Descending Los Angeles Center
07:52PM 34.4258 -118.7178 357° North 245 282 12,000  Climbing Los Angeles Center
07:53PM 34.5064 -118.7247 356° North 243 280 12,000  Level Los Angeles Center
07:54PM 34.5697 -118.7475 344° North 238 274 12,000 480 Level Los Angeles Center
07:55PM 34.6392 -118.7836 337° Northwest 219 252 13,100 960 Climbing Los Angeles Center
07:56PM 34.6967 -118.8136 337° Northwest 225 259 14,000 360 Climbing Los Angeles Center
07:57PM 34.7675 -118.8450 340° North 248 285 13,900 120 Descending Los Angeles Center
07:58PM 34.8264 -118.8731 339° North 248 285 14,300 720 Climbing Los Angeles Center
07:59PM 34.8861 -118.8925 345° North 226 260 15,500 1,260 Climbing Los Angeles Center
08:00PM 34.9492 -118.8994 355° North 215 247 17,000 1,140 Climbing Los Angeles Center
08:02PM 34.9969 -118.9039 356° North 214 246 17,900 1,140 Climbing Los Angeles Center
08:03PM 35.0792 -118.9147 354° North 215 247 19,400 960 Climbing Los Angeles Center
08:04PM 35.1394 -118.9222 354° North 218 251 20,000 240 Climbing Los Angeles Center
08:05PM 35.2097 -118.9317 354° North 249 287 20,000  Level Los Angeles Center
08:06PM 35.2672 -118.9394 354° North 256 295 20,000  Level Los Angeles Center
08:07PM 35.3544 -118.9492 355° North 262 302 20,000  Level Los Angeles Center
08:08PM 35.4281 -118.9592 354° North 265 305 20,000  Level Los Angeles Center
08:09PM 35.5181 -118.9700 354° North 269 310 20,000  Level Los Angeles Center
08:10PM 35.5933 -118.9800 354° North 271 312 20,000 -360 Level Los Angeles Center
08:11PM 35.6692 -118.9903 354° North 274 315 19,300 -960 Descending Los Angeles Center
08:11PM 35.6983 -118.9922 357° North 274 315 18,700 -1,380 Descending Oakland Center
08:12PM 35.7797 -119.0008 355° North 285 328 17,400 -1,320 Descending Oakland Center
08:13PM 35.8622 -119.0139 353° North 294 338 16,000 -1,380 Descending Oakland Center
08:14PM 35.9433 -119.0358 348° North 298 343 14,600 -1,020 Descending Oakland Center
08:15PM 36.0203 -119.0733 338° Northwest 300 345 14,000 -300 Descending Oakland Center
08:16PM 36.0903 -119.1078 338° Northwest 284 327 14,000  Level Oakland Center
08:17PM 36.1717 -119.1453 340° North 268 308 14,000 -300 Level Oakland Center
08:18PM 36.2386 -119.1756 340° North 263 303 13,400 -1,620 Descending Oakland Center
08:19PM 36.3064 -119.2072 339° North 262 302 10,800 -2,520 Descending Oakland Center
08:20PM 36.3756 -119.2436 337° Northwest 268 308 8,300 -2,340 Descending Oakland Center
08:21PM 36.4397 -119.2733 340° North 250 288 6,100 -1,920 Descending Oakland Center
08:22PM 36.5019 -119.3022 340° North 242 278 4,400 -1,080 Descending Oakland Center
08:23PM 36.5583 -119.3414 331° Northwest 247 284 3,900 -240 Descending Oakland Center
08:24PM 36.5875 -119.4064 299° West 221 254 4,000  Climbing Oakland Center
08:25PM 36.6208 -119.4853 298° West 216 249 4,000 -300 Level Oakland Center
08:27PM 36.6550 -119.5444 306° West 215 247 3,500 -300 Descending Oakland Center
08:28PM 36.6956 -119.5875 320° Northwest 194 223 3,400 -120 Descending Oakland Center